Terminal Aerodrome Forecast
Issued by NWS

Home | Current Version | Previous Version | Text Only | Print | Product List | Glossary On
Versions: 1 2 3 4 5 6 7 8 9 10 11 12 13 14
000
FTUS45 KRIW 271700
TAFBPI
TAF
KBPI 271720Z 2718/2818 VRB05KT P6SM VCSH SCT035 BKN070
     FM272100 VRB10G17KT P6SM VCTS SCT040 OVC060CB
     FM280200 34007KT P6SM SCT030 BKN050
     FM281000 VRB04KT P6SM VCFG SCT003 SCT015
     FM281300 VRB04KT P6SM SCT030=

USA.gov is the U.S. government's official web portal to all federal, state and local government web resources and services.